Time;durP1;ratioP1;P1;durP2;ratioP2;P2;SDS_P1;SDS_P2;PMS_P1;PMS_P2;Temp;Humidity;BMP_temperature;BMP_pressure;BME280_temperature;BME280_humidity;BME280_pressure;Samples;Min_cycle;Max_cycle;Signal;HPM_P1;HPM_P2
2023/05/31 00:01:37;;;;;;;;;;;;;;;;;;2218194;59;1757;-17
2023/05/31 00:04:08;;;;;;;;;;;;;;;;;;2217242;66;1937;-18
2023/05/31 00:06:44;;;;;;;;;;;;;;;;;;2214529;66;1537;-18
2023/05/31 00:09:14;;;;;;;;;;;;;;;;;;2214171;66;1982;-17
2023/05/31 00:11:45;;;;;;;;;;;;;;;;;;2214942;66;1839;-18
2023/05/31 00:14:15;;;;;;;;;;;;;;;;;;2214669;66;2170;-17
2023/05/31 00:16:45;;;;;;;;;;;;;;;;;;2215288;59;1358;-18
2023/05/31 00:19:16;;;;;;;;;;;;;;;;;;2216330;66;2204;-18
2023/05/31 00:21:46;;;;;;;;;;;;;;;;;;2218664;66;1667;-17
2023/05/31 00:24:16;;;;;;;;;;;;;;;;;;2218048;66;1986;-17
2023/05/31 00:26:47;;;;;;;;;;;;;;;;;;2218357;66;1814;-18
2023/05/31 00:29:17;;;;;;;;;;;;;;;;;;2219000;66;1413;-18
2023/05/31 00:31:47;;;;;;;;;;;;;;;;;;2219258;58;1750;-18
2023/05/31 00:34:17;;;;;;;;;;;;;;;;;;2215887;66;1377;-18
2023/05/31 00:36:48;;;;;;;;;;;;;;;;;;2215779;59;2177;-18
2023/05/31 00:39:18;;;;;;;;;;;;;;;;;;2218984;58;1585;-18
2023/05/31 00:41:48;;;;;;;;;;;;;;;;;;2218656;59;1299;-17
2023/05/31 00:44:19;;;;;;;;;;;;;;;;;;2218678;66;1936;-18
2023/05/31 00:46:49;;;;;;;;;;;;;;;;;;2219180;66;2270;-18
2023/05/31 00:49:19;;;;;;;;;;;;;;;;;;2219079;59;1697;-17
2023/05/31 00:51:50;;;;;;;;;;;;;;;;;;2219023;66;1658;-18
2023/05/31 00:54:20;;;;;;;;;;;;;;;;;;2216291;59;2083;-17
2023/05/31 00:56:51;;;;;;;;;;;;;;;;;;2218679;66;1456;-19
2023/05/31 00:59:22;;;;;;;;;;;;;;;;;;2216227;59;2269;-18
2023/05/31 01:01:53;;;;;;;;;;;;;;;;;;2218824;59;1425;-17
2023/05/31 01:04:24;;;;;;;;;;;;;;;;;;2214972;66;2001;-18
2023/05/31 01:06:56;;;;;;;;;;;;;;;;;;2218081;66;1763;-18
2023/05/31 01:09:28;;;;;;;;;;;;;;;;;;2216270;66;1544;-18
2023/05/31 01:12:05;;;;;;;;;;;;;;;;;;2215407;66;1139;-17
2023/05/31 01:14:48;;;;;;;;;;;;;;;;;;2215837;66;1688;-17
2023/05/31 01:17:36;;;;;;;;;;;;;;;;;;2218653;59;1935;-18
2023/05/31 01:20:11;;;;;;;;;;;;;;;;;;2215198;66;1651;-18
2023/05/31 01:22:50;;;;;;;;;;;;;;;;;;2218796;66;1242;-18
2023/05/31 01:25:23;;;;;;;;;;;;;;;;;;2215849;58;2423;-18
2023/05/31 01:27:55;;;;;;;;;;;;;;;;;;2218999;66;2074;-18
2023/05/31 01:30:27;;;;;;;;;;;;;;;;;;2220167;58;1483;-17
2023/05/31 01:32:59;;;;;;;;;;;;;;;;;;2219095;58;1834;-17
2023/05/31 01:35:30;;;;;;;;;;;;;;;;;;2216194;66;1707;-18
2023/05/31 01:38:00;;;;;;;;;;;;;;;;;;2219821;58;1469;-17
2023/05/31 01:40:31;;;;;;;;;;;;;;;;;;2219876;66;1713;-17
2023/05/31 01:43:03;;;;;;;;;;;;;;;;;;2220144;58;1351;-18
2023/05/31 01:45:34;;;;;;;;;;;;;;;;;;2217539;66;1943;-18
2023/05/31 01:48:06;;;;;;;;;;;;;;;;;;2218581;66;2228;-17
2023/05/31 01:50:38;;;;;;;;;;;;;;;;;;2217336;59;2428;-17
2023/05/31 01:53:09;;;;;;;;;;;;;;;;;;2218884;58;1758;-18
2023/05/31 01:55:39;;;;;;;;;;;;;;;;;;2216895;59;1944;-18
2023/05/31 01:58:10;;;;;;;;;;;;;;;;;;2216173;59;2193;-17
2023/05/31 02:00:41;;;;;;;;;;;;;;;;;;2216345;66;1721;-18
2023/05/31 02:03:11;;;;;;;;;;;;;;;;;;2218481;66;1411;-17
2023/05/31 02:05:55;;;;;;;;;;;;;;;;;;2215492;66;1994;-17
2023/05/31 02:08:25;;;;;;;;;;;;;;;;;;2219403;66;1310;-17
2023/05/31 02:10:56;;;;;;;;;;;;;;;;;;2216849;66;1344;-17
2023/05/31 02:13:27;;;;;;;;;;;;;;;;;;2216111;66;1623;-17
2023/05/31 02:15:57;;;;;;;;;;;;;;;;;;2213767;66;1677;-18
2023/05/31 02:18:28;;;;;;;;;;;;;;;;;;2215589;59;1549;-18
2023/05/31 02:20:59;;;;;;;;;;;;;;;;;;2218881;66;1535;-17
2023/05/31 02:23:29;;;;;;;;;;;;;;;;;;2219421;66;1911;-18
2023/05/31 02:26:00;;;;;;;;;;;;;;;;;;2218943;66;1948;-17
2023/05/31 02:28:30;;;;;;;;;;;;;;;;;;2219593;66;1353;-18
2023/05/31 02:31:04;;;;;;;;;;;;;;;;;;2219444;58;2241;-18
2023/05/31 02:33:34;;;;;;;;;;;;;;;;;;2218539;66;1815;-17
2023/05/31 02:36:05;;;;;;;;;;;;;;;;;;2219135;58;1661;-17
2023/05/31 02:38:35;;;;;;;;;;;;;;;;;;2216985;66;1528;-17
2023/05/31 02:41:05;;;;;;;;;;;;;;;;;;2219902;66;1561;-17
2023/05/31 02:43:36;;;;;;;;;;;;;;;;;;2219605;66;1973;-18
2023/05/31 02:46:06;;;;;;;;;;;;;;;;;;2214280;66;1721;-17
2023/05/31 02:48:36;;;;;;;;;;;;;;;;;;2219825;59;2056;-17
2023/05/31 02:51:09;;;;;;;;;;;;;;;;;;2219633;58;1855;-17
2023/05/31 02:53:40;;;;;;;;;;;;;;;;;;2219538;66;1662;-17
2023/05/31 02:56:11;;;;;;;;;;;;;;;;;;2219091;58;2259;-17
2023/05/31 02:58:41;;;;;;;;;;;;;;;;;;2219444;58;2313;-17
2023/05/31 03:01:13;;;;;;;;;;;;;;;;;;2218373;59;1569;-17
2023/05/31 03:03:43;;;;;;;;;;;;;;;;;;2216583;59;1974;-17
2023/05/31 03:06:16;;;;;;;;;;;;;;;;;;2218927;59;1793;-17
2023/05/31 03:08:47;;;;;;;;;;;;;;;;;;2219442;66;1599;-17
2023/05/31 03:11:20;;;;;;;;;;;;;;;;;;2219343;66;1658;-18
2023/05/31 03:13:50;;;;;;;;;;;;;;;;;;2219571;58;2232;-17
2023/05/31 03:16:23;;;;;;;;;;;;;;;;;;2218850;66;1578;-17
2023/05/31 03:18:53;;;;;;;;;;;;;;;;;;2216681;59;1706;-17
2023/05/31 03:21:24;;;;;;;;;;;;;;;;;;2217890;66;1765;-17
2023/05/31 03:23:54;;;;;;;;;;;;;;;;;;2220100;66;1939;-17
2023/05/31 03:26:25;;;;;;;;;;;;;;;;;;2218650;66;1299;-17
2023/05/31 03:28:56;;;;;;;;;;;;;;;;;;2219135;66;1745;-18
2023/05/31 03:31:28;;;;;;;;;;;;;;;;;;2219536;58;1460;-17
2023/05/31 03:33:59;;;;;;;;;;;;;;;;;;2218326;66;1546;-17
2023/05/31 03:36:30;;;;;;;;;;;;;;;;;;2216867;59;1817;-17
2023/05/31 03:39:00;;;;;;;;;;;;;;;;;;2219901;58;1669;-17
2023/05/31 03:41:30;;;;;;;;;;;;;;;;;;2219948;66;1307;-17
2023/05/31 03:44:01;;;;;;;;;;;;;;;;;;2218592;66;1941;-17
2023/05/31 03:46:31;;;;;;;;;;;;;;;;;;2219203;66;2562;-17
2023/05/31 03:49:03;;;;;;;;;;;;;;;;;;2219667;66;1567;-17
2023/05/31 03:51:33;;;;;;;;;;;;;;;;;;2219227;58;1438;-17
2023/05/31 03:54:03;;;;;;;;;;;;;;;;;;2219888;58;1390;-17
2023/05/31 03:56:34;;;;;;;;;;;;;;;;;;2215642;66;1701;-20
2023/05/31 03:59:05;;;;;;;;;;;;;;;;;;2216101;59;2287;-20
2023/05/31 04:01:37;;;;;;;;;;;;;;;;;;2218491;66;1642;-20
2023/05/31 04:04:07;;;;;;;;;;;;;;;;;;2215229;66;1898;-20
2023/05/31 04:06:37;;;;;;;;;;;;;;;;;;2213275;66;1881;-20
2023/05/31 04:09:07;;;;;;;;;;;;;;;;;;2218432;66;1967;-20
2023/05/31 04:11:38;;;;;;;;;;;;;;;;;;2219050;66;1236;-20
2023/05/31 04:14:08;;;;;;;;;;;;;;;;;;2218815;66;1873;-19
2023/05/31 04:16:38;;;;;;;;;;;;;;;;;;2219124;60;1568;-20
2023/05/31 04:19:10;;;;;;;;;;;;;;;;;;2218991;58;1743;-20
2023/05/31 04:21:40;;;;;;;;;;;;;;;;;;2219330;66;1216;-20
2023/05/31 04:24:11;;;;;;;;;;;;;;;;;;2218639;66;1928;-20
2023/05/31 04:26:41;;;;;;;;;;;;;;;;;;2219058;66;1717;-18
2023/05/31 04:29:11;;;;;;;;;;;;;;;;;;2215591;66;1719;-17
2023/05/31 04:31:42;;;;;;;;;;;;;;;;;;2219701;58;1779;-17
2023/05/31 04:34:18;;;;;;;;;;;;;;;;;;2218736;66;1846;-18
2023/05/31 04:36:49;;;;;;;;;;;;;;;;;;2219942;58;1598;-17
2023/05/31 04:39:22;;;;;;;;;;;;;;;;;;2215369;59;1574;-17
2023/05/31 04:41:52;;;;;;;;;;;;;;;;;;2219663;66;1625;-17
2023/05/31 04:44:23;;;;;;;;;;;;;;;;;;2218330;66;1999;-17
2023/05/31 04:46:53;;;;;;;;;;;;;;;;;;2215454;66;2101;-17
2023/05/31 04:49:24;;;;;;;;;;;;;;;;;;2218384;66;1873;-17
2023/05/31 04:51:54;;;;;;;;;;;;;;;;;;2215258;59;1585;-17
2023/05/31 04:54:24;;;;;;;;;;;;;;;;;;2217590;59;1316;-17
2023/05/31 04:56:55;;;;;;;;;;;;;;;;;;2217883;66;1656;-18
2023/05/31 04:59:25;;;;;;;;;;;;;;;;;;2214794;59;2205;-17
2023/05/31 05:01:55;;;;;;;;;;;;;;;;;;2216101;66;1737;-17
2023/05/31 05:04:26;;;;;;;;;;;;;;;;;;2218867;66;1955;-17
2023/05/31 05:06:56;;;;;;;;;;;;;;;;;;2219923;59;1485;-18
2023/05/31 05:09:26;;;;;;;;;;;;;;;;;;2219605;66;1621;-17
2023/05/31 05:11:56;;;;;;;;;;;;;;;;;;2219332;59;1478;-17
2023/05/31 05:14:27;;;;;;;;;;;;;;;;;;2216122;66;1797;-17
2023/05/31 05:16:57;;;;;;;;;;;;;;;;;;2219646;58;1582;-18
2023/05/31 05:19:27;;;;;;;;;;;;;;;;;;2215734;66;1762;-17
2023/05/31 05:21:57;;;;;;;;;;;;;;;;;;2215398;59;1559;-17
2023/05/31 05:24:28;;;;;;;;;;;;;;;;;;2219335;66;1922;-17
2023/05/31 05:26:58;;;;;;;;;;;;;;;;;;2219400;66;1720;-17
2023/05/31 05:29:29;;;;;;;;;;;;;;;;;;2220129;66;1980;-17
2023/05/31 05:31:59;;;;;;;;;;;;;;;;;;2219458;58;1659;-18
2023/05/31 05:34:29;;;;;;;;;;;;;;;;;;2219900;66;1669;-18
2023/05/31 05:37:00;;;;;;;;;;;;;;;;;;2219643;59;1676;-17
2023/05/31 05:39:30;;;;;;;;;;;;;;;;;;2218234;59;1545;-17
2023/05/31 05:42:02;;;;;;;;;;;;;;;;;;2211598;66;2570;-17
2023/05/31 05:44:33;;;;;;;;;;;;;;;;;;2218810;66;1961;-17
2023/05/31 05:47:04;;;;;;;;;;;;;;;;;;2216504;59;2227;-17
2023/05/31 05:49:34;;;;;;;;;;;;;;;;;;2219719;66;1455;-17
2023/05/31 05:52:05;;;;;;;;;;;;;;;;;;2216230;59;1652;-17
2023/05/31 05:54:35;;;;;;;;;;;;;;;;;;2219375;58;1550;-18
2023/05/31 05:57:06;;;;;;;;;;;;;;;;;;2218702;66;1450;-18
2023/05/31 05:59:37;;;;;;;;;;;;;;;;;;2219078;66;2331;-18
2023/05/31 06:02:07;;;;;;;;;;;;;;;;;;2219361;58;1736;-17
2023/05/31 06:04:38;;;;;;;;;;;;;;;;;;2218552;66;2009;-18
2023/05/31 06:07:08;;;;;;;;;;;;;;;;;;2219399;66;1745;-18
2023/05/31 06:09:38;;;;;;;;;;;;;;;;;;2219408;66;1209;-18
2023/05/31 06:12:09;;;;;;;;;;;;;;;;;;2213104;66;1685;-18
2023/05/31 06:14:39;;;;;;;;;;;;;;;;;;2218374;66;1846;-20
2023/05/31 06:17:09;;;;;;;;;;;;;;;;;;2218996;58;1897;-20
2023/05/31 06:19:40;;;;;;;;;;;;;;;;;;2216048;66;1410;-20
2023/05/31 06:22:11;;;;;;;;;;;;;;;;;;2217879;66;1684;-20
2023/05/31 06:24:42;;;;;;;;;;;;;;;;;;2219099;66;1915;-20
2023/05/31 06:27:14;;;;;;;;;;;;;;;;;;2216568;66;1636;-20
2023/05/31 06:29:44;;;;;;;;;;;;;;;;;;2215218;66;1511;-20
2023/05/31 06:32:14;;;;;;;;;;;;;;;;;;2218125;66;1688;-20
2023/05/31 06:34:45;;;;;;;;;;;;;;;;;;2218744;66;1569;-20
2023/05/31 06:37:15;;;;;;;;;;;;;;;;;;2218227;58;1755;-20
2023/05/31 06:39:45;;;;;;;;;;;;;;;;;;2218876;58;1598;-20
2023/05/31 06:42:16;;;;;;;;;;;;;;;;;;2217710;66;1629;-20
2023/05/31 06:44:46;;;;;;;;;;;;;;;;;;2218895;66;1987;-20
2023/05/31 06:47:17;;;;;;;;;;;;;;;;;;2218530;59;2217;-20
2023/05/31 06:49:47;;;;;;;;;;;;;;;;;;2215334;59;1786;-20
2023/05/31 06:52:20;;;;;;;;;;;;;;;;;;2218313;66;1827;-20
2023/05/31 06:54:51;;;;;;;;;;;;;;;;;;2219780;58;1592;-20
2023/05/31 06:57:21;;;;;;;;;;;;;;;;;;2219622;66;1698;-20
2023/05/31 06:59:52;;;;;;;;;;;;;;;;;;2220274;59;2552;-20
2023/05/31 07:02:22;;;;;;;;;;;;;;;;;;2220617;58;1750;-20
2023/05/31 07:04:52;;;;;;;;;;;;;;;;;;2218539;59;1935;-20
2023/05/31 07:07:22;;;;;;;;;;;;;;;;;;2219319;58;2562;-20
2023/05/31 07:09:53;;;;;;;;;;;;;;;;;;2217951;58;3332;-20
2023/05/31 07:12:23;;;;;;;;;;;;;;;;;;2219848;58;2619;-20
2023/05/31 07:14:53;;;;;;;;;;;;;;;;;;2221267;66;2380;-21
2023/05/31 07:17:24;;;;;;;;;;;;;;;;;;2219660;59;2306;-20
2023/05/31 07:19:54;;;;;;;;;;;;;;;;;;2220196;66;2179;-20
2023/05/31 07:22:24;;;;;;;;;;;;;;;;;;2219889;58;2572;-20
2023/05/31 07:24:54;;;;;;;;;;;;;;;;;;2215352;66;2061;-20
2023/05/31 07:27:25;;;;;;;;;;;;;;;;;;2219515;58;2267;-20
2023/05/31 07:29:55;;;;;;;;;;;;;;;;;;2215044;59;2440;-20
2023/05/31 07:32:26;;;;;;;;;;;;;;;;;;2216428;59;2375;-20
2023/05/31 07:34:56;;;;;;;;;;;;;;;;;;2219920;58;2480;-20
2023/05/31 07:37:26;;;;;;;;;;;;;;;;;;2221516;66;2069;-20
2023/05/31 07:39:57;;;;;;;;;;;;;;;;;;2221405;58;2344;-20
2023/05/31 07:42:28;;;;;;;;;;;;;;;;;;2220799;58;2356;-20
2023/05/31 07:44:59;;;;;;;;;;;;;;;;;;2220813;59;1977;-20
2023/05/31 07:47:29;;;;;;;;;;;;;;;;;;2218156;58;2153;-21
2023/05/31 07:49:59;;;;;;;;;;;;;;;;;;2213194;66;2066;-21
2023/05/31 07:52:30;;;;;;;;;;;;;;;;;;2217020;59;2157;-20
2023/05/31 07:55:00;;;;;;;;;;;;;;;;;;2217302;59;2355;-21
2023/05/31 07:57:30;;;;;;;;;;;;;;;;;;2214691;59;2625;-20
2023/05/31 08:00:00;;;;;;;;;;;;;;;;;;2218420;66;1797;-22
2023/05/31 08:02:31;;;;;;;;;;;;;;;;;;2219743;59;2801;-30
2023/05/31 08:05:04;;;;;;;;;;;;;;;;;;2219750;66;2322;-20
2023/05/31 08:07:35;;;;;;;;;;;;;;;;;;2219306;59;2637;-20
2023/05/31 08:10:05;;;;;;;;;;;;;;;;;;2219555;59;3248;-24
2023/05/31 08:12:35;;;;;;;;;;;;;;;;;;2216890;59;3483;-20
2023/05/31 08:15:06;;;;;;;;;;;;;;;;;;2219716;58;2066;-21
2023/05/31 08:17:36;;;;;;;;;;;;;;;;;;2218769;59;1735;-34
2023/05/31 08:20:07;;;;;;;;;;;;;;;;;;2216162;66;2596;-21
2023/05/31 08:22:37;;;;;;;;;;;;;;;;;;2217906;59;2238;-21
2023/05/31 08:25:08;;;;;;;;;;;;;;;;;;2216764;59;1937;-21
2023/05/31 08:27:39;;;;;;;;;;;;;;;;;;2217741;66;2442;-21
2023/05/31 08:30:10;;;;;;;;;;;;;;;;;;2216980;58;2094;-21
2023/05/31 08:32:40;;;;;;;;;;;;;;;;;;2217898;58;1874;-21
2023/05/31 08:35:11;;;;;;;;;;;;;;;;;;2217162;58;2530;-21
2023/05/31 08:37:42;;;;;;;;;;;;;;;;;;2218558;58;2821;-21
2023/05/31 08:40:16;;;;;;;;;;;;;;;;;;2216451;58;1845;-21
2023/05/31 08:42:50;;;;;;;;;;;;;;;;;;2217342;58;2863;-21
2023/05/31 08:45:20;;;;;;;;;;;;;;;;;;2215980;58;2592;-21
2023/05/31 08:47:53;;;;;;;;;;;;;;;;;;2217018;58;2131;-21
2023/05/31 08:50:26;;;;;;;;;;;;;;;;;;2215650;58;1816;-21
2023/05/31 08:52:59;;;;;;;;;;;;;;;;;;2210648;59;2592;-21
2023/05/31 08:55:29;;;;;;;;;;;;;;;;;;2214841;58;2529;-21
2023/05/31 08:58:02;;;;;;;;;;;;;;;;;;2213234;58;3218;-18
2023/05/31 09:00:35;;;;;;;;;;;;;;;;;;2209899;58;2548;-19
2023/05/31 09:03:07;;;;;;;;;;;;;;;;;;2215290;58;2444;-18
2023/05/31 09:05:37;;;;;;;;;;;;;;;;;;2215219;66;2443;-19
2023/05/31 09:08:07;;;;;;;;;;;;;;;;;;2215423;66;2195;-21
2023/05/31 09:10:39;;;;;;;;;;;;;;;;;;2209689;59;1638;-21
2023/05/31 09:13:09;;;;;;;;;;;;;;;;;;2216408;58;2418;-22
2023/05/31 09:15:41;;;;;;;;;;;;;;;;;;2216038;66;1739;-21
2023/05/31 09:18:13;;;;;;;;;;;;;;;;;;2215638;58;3164;-19
2023/05/31 09:20:43;;;;;;;;;;;;;;;;;;2215623;66;2304;-19
2023/05/31 09:23:16;;;;;;;;;;;;;;;;;;2215878;66;1809;-19
2023/05/31 09:25:50;;;;;;;;;;;;;;;;;;2215919;58;2002;-21
2023/05/31 09:28:21;;;;;;;;;;;;;;;;;;2215134;66;2863;-21
2023/05/31 09:31:03;;;;;;;;;;;;;;;;;;2213768;59;1482;-21
2023/05/31 09:33:37;;;;;;;;;;;;;;;;;;2216634;66;1367;-21
2023/05/31 09:36:08;;;;;;;;;;;;;;;;;;2216464;58;1458;-21
2023/05/31 09:38:39;;;;;;;;;;;;;;;;;;2216183;58;1304;-21
2023/05/31 09:41:15;;;;;;;;;;;;;;;;;;2216167;66;1979;-21
2023/05/31 09:43:49;;;;;;;;;;;;;;;;;;2215226;66;1384;-21
2023/05/31 09:46:21;;;;;;;;;;;;;;;;;;2209915;66;1934;-21
2023/05/31 09:49:03;;;;;;;;;;;;;;;;;;2213363;66;1284;-21
2023/05/31 09:51:33;;;;;;;;;;;;;;;;;;2216104;58;1230;-21
2023/05/31 09:54:11;;;;;;;;;;;;;;;;;;2216366;58;1378;-21
2023/05/31 09:56:41;;;;;;;;;;;;;;;;;;2216403;66;1488;-21
2023/05/31 09:59:12;;;;;;;;;;;;;;;;;;2210575;66;2162;-21
2023/05/31 10:01:44;;;;;;;;;;;;;;;;;;2216042;59;1150;-21
2023/05/31 10:04:14;;;;;;;;;;;;;;;;;;2215692;66;2012;-21
2023/05/31 10:06:45;;;;;;;;;;;;;;;;;;2212809;66;1333;-21
2023/05/31 10:09:15;;;;;;;;;;;;;;;;;;2215870;59;2051;-21
2023/05/31 10:11:50;;;;;;;;;;;;;;;;;;2216602;58;1472;-21
2023/05/31 10:14:23;;;;;;;;;;;;;;;;;;2216439;58;2255;-21
2023/05/31 10:16:55;;;;;;;;;;;;;;;;;;2214554;58;2953;-21
2023/05/31 10:19:34;;;;;;;;;;;;;;;;;;2215870;66;2724;-21
2023/05/31 10:22:06;;;;;;;;;;;;;;;;;;2216654;58;1902;-21
2023/05/31 10:24:56;;;;;;;;;;;;;;;;;;2216418;66;2063;-21
2023/05/31 10:27:28;;;;;;;;;;;;;;;;;;2215951;58;1934;-21
2023/05/31 10:30:05;;;;;;;;;;;;;;;;;;2216332;59;1225;-21
2023/05/31 10:32:43;;;;;;;;;;;;;;;;;;2213753;59;1563;-21
2023/05/31 10:35:13;;;;;;;;;;;;;;;;;;2213333;58;1617;-21
2023/05/31 10:37:44;;;;;;;;;;;;;;;;;;2217126;66;1245;-21
2023/05/31 10:40:17;;;;;;;;;;;;;;;;;;2216907;66;2127;-21
2023/05/31 10:42:54;;;;;;;;;;;;;;;;;;2213356;58;1363;-21
2023/05/31 10:45:37;;;;;;;;;;;;;;;;;;2216230;66;1986;-21
2023/05/31 10:48:17;;;;;;;;;;;;;;;;;;2214040;59;2253;-21
2023/05/31 10:50:58;;;;;;;;;;;;;;;;;;2217312;58;1533;-21
2023/05/31 10:53:34;;;;;;;;;;;;;;;;;;2213268;66;1679;-21
2023/05/31 10:56:05;;;;;;;;;;;;;;;;;;2216212;66;2074;-21
2023/05/31 10:58:40;;;;;;;;;;;;;;;;;;2216355;66;2203;-21
2023/05/31 11:01:11;;;;;;;;;;;;;;;;;;2216465;59;2105;-21
2023/05/31 11:03:50;;;;;;;;;;;;;;;;;;2213263;66;1483;-21
2023/05/31 11:06:28;;;;;;;;;;;;;;;;;;2217057;58;2248;-21
2023/05/31 11:09:01;;;;;;;;;;;;;;;;;;2217236;58;1320;-21
2023/05/31 11:11:31;;;;;;;;;;;;;;;;;;2215627;66;1159;-21
2023/05/31 11:14:06;;;;;;;;;;;;;;;;;;2213457;59;1252;-21
2023/05/31 11:16:42;;;;;;;;;;;;;;;;;;2216094;66;2638;-21
2023/05/31 11:19:13;;;;;;;;;;;;;;;;;;2215582;59;2977;-21
2023/05/31 11:21:47;;;;;;;;;;;;;;;;;;2216275;58;2718;-21
2023/05/31 11:24:33;;;;;;;;;;;;;;;;;;2213291;66;2172;-21
2023/05/31 11:27:05;;;;;;;;;;;;;;;;;;2214931;66;1785;-21
2023/05/31 11:29:48;;;;;;;;;;;;;;;;;;2216005;59;2285;-21
2023/05/31 11:32:22;;;;;;;;;;;;;;;;;;2215699;58;2948;-25
2023/05/31 11:34:57;;;;;;;;;;;;;;;;;;2213558;59;2937;-21
2023/05/31 11:37:28;;;;;;;;;;;;;;;;;;2213016;66;1767;-21
2023/05/31 11:40:06;;;;;;;;;;;;;;;;;;2216904;58;2662;-21
2023/05/31 11:42:37;;;;;;;;;;;;;;;;;;2216151;66;2571;-21
2023/05/31 11:45:11;;;;;;;;;;;;;;;;;;2216235;66;1944;-21
2023/05/31 11:47:44;;;;;;;;;;;;;;;;;;2216015;58;3002;-21
2023/05/31 11:50:16;;;;;;;;;;;;;;;;;;2215980;59;2492;-22
2023/05/31 11:52:46;;;;;;;;;;;;;;;;;;2216484;59;3398;-21
2023/05/31 11:55:17;;;;;;;;;;;;;;;;;;2215956;58;1869;-21
2023/05/31 11:57:51;;;;;;;;;;;;;;;;;;2215488;58;2071;-21
2023/05/31 12:00:22;;;;;;;;;;;;;;;;;;2214777;58;2034;-21
2023/05/31 12:02:53;;;;;;;;;;;;;;;;;;2215494;66;2853;-21
2023/05/31 12:05:23;;;;;;;;;;;;;;;;;;2215152;58;2771;-21
2023/05/31 12:07:54;;;;;;;;;;;;;;;;;;2215171;58;2528;-21
2023/05/31 12:10:26;;;;;;;;;;;;;;;;;;2215319;58;2903;-21
2023/05/31 12:12:57;;;;;;;;;;;;;;;;;;2215194;58;3237;-21
2023/05/31 12:15:31;;;;;;;;;;;;;;;;;;2215389;58;2970;-21
2023/05/31 12:18:01;;;;;;;;;;;;;;;;;;2214830;58;3160;-21
2023/05/31 12:20:32;;;;;;;;;;;;;;;;;;2211538;58;2685;-21
2023/05/31 12:23:13;;;;;;;;;;;;;;;;;;2215956;58;2282;-21
2023/05/31 12:25:45;;;;;;;;;;;;;;;;;;2215532;58;1980;-21
2023/05/31 12:28:15;;;;;;;;;;;;;;;;;;2216041;58;2361;-21
2023/05/31 12:30:47;;;;;;;;;;;;;;;;;;2213185;58;3013;-21
2023/05/31 12:33:17;;;;;;;;;;;;;;;;;;2213894;58;2683;-22
2023/05/31 12:35:47;;;;;;;;;;;;;;;;;;2216918;58;2995;-21
2023/05/31 12:40:52;;;;;;;;;;;;;;;;;;2211865;58;2246;-23
2023/05/31 12:43:22;;;;;;;;;;;;;;;;;;2214058;58;2977;-24
2023/05/31 12:45:53;;;;;;;;;;;;;;;;;;2215399;58;2172;-24
2023/05/31 12:48:24;;;;;;;;;;;;;;;;;;2214828;58;2111;-24
2023/05/31 12:50:57;;;;;;;;;;;;;;;;;;2209696;58;1637;-24
2023/05/31 12:53:27;;;;;;;;;;;;;;;;;;2214277;66;2298;-24
2023/05/31 12:55:57;;;;;;;;;;;;;;;;;;2212401;58;2707;-24
2023/05/31 12:58:35;;;;;;;;;;;;;;;;;;2215017;59;2839;-23
2023/05/31 13:01:07;;;;;;;;;;;;;;;;;;2208539;59;2301;-23
2023/05/31 13:03:37;;;;;;;;;;;;;;;;;;2211513;59;1839;-23
2023/05/31 13:06:08;;;;;;;;;;;;;;;;;;2211255;66;2520;-23
2023/05/31 13:08:38;;;;;;;;;;;;;;;;;;2214313;58;1879;-23
2023/05/31 13:11:08;;;;;;;;;;;;;;;;;;2212675;66;1611;-23
2023/05/31 13:13:42;;;;;;;;;;;;;;;;;;2214644;58;1752;-22
2023/05/31 13:16:12;;;;;;;;;;;;;;;;;;2211724;66;2191;-23
2023/05/31 13:18:42;;;;;;;;;;;;;;;;;;2214194;66;2737;-23
2023/05/31 13:21:13;;;;;;;;;;;;;;;;;;2210293;59;2276;-23
2023/05/31 13:23:43;;;;;;;;;;;;;;;;;;2215563;66;2313;-24
2023/05/31 13:26:13;;;;;;;;;;;;;;;;;;2211118;59;2535;-24
2023/05/31 13:28:44;;;;;;;;;;;;;;;;;;2216730;66;3054;-23
2023/05/31 13:31:14;;;;;;;;;;;;;;;;;;2216082;66;1583;-23
2023/05/31 13:33:46;;;;;;;;;;;;;;;;;;2210763;66;2482;-24
2023/05/31 13:36:17;;;;;;;;;;;;;;;;;;2215159;59;2946;-24
2023/05/31 13:38:48;;;;;;;;;;;;;;;;;;2214775;59;2076;-24
2023/05/31 13:41:21;;;;;;;;;;;;;;;;;;2211339;66;1519;-24
2023/05/31 13:43:52;;;;;;;;;;;;;;;;;;2210521;66;2309;-22
2023/05/31 13:46:22;;;;;;;;;;;;;;;;;;2215251;59;2250;-23
2023/05/31 13:48:52;;;;;;;;;;;;;;;;;;2215947;66;1534;-23
2023/05/31 13:51:22;;;;;;;;;;;;;;;;;;2215263;59;1836;-23
2023/05/31 13:53:53;;;;;;;;;;;;;;;;;;2216381;58;1217;-22
2023/05/31 13:56:23;;;;;;;;;;;;;;;;;;2215601;59;1646;-24
2023/05/31 13:58:53;;;;;;;;;;;;;;;;;;2211550;59;2115;-23
2023/05/31 14:01:23;;;;;;;;;;;;;;;;;;2211930;59;2211;-23
2023/05/31 14:03:54;;;;;;;;;;;;;;;;;;2215682;59;1776;-23
2023/05/31 14:06:24;;;;;;;;;;;;;;;;;;2215650;58;2063;-23
2023/05/31 14:08:55;;;;;;;;;;;;;;;;;;2214960;59;3206;-23
2023/05/31 14:11:27;;;;;;;;;;;;;;;;;;2215481;58;1232;-22
2023/05/31 14:13:57;;;;;;;;;;;;;;;;;;2212085;66;1745;-23
2023/05/31 14:16:28;;;;;;;;;;;;;;;;;;2215006;66;1591;-23
2023/05/31 14:18:58;;;;;;;;;;;;;;;;;;2215705;66;1131;-23
2023/05/31 14:21:29;;;;;;;;;;;;;;;;;;2210664;58;2913;-24
2023/05/31 14:23:59;;;;;;;;;;;;;;;;;;2212601;59;1812;-23
2023/05/31 14:26:29;;;;;;;;;;;;;;;;;;2210841;59;2376;-24
2023/05/31 14:29:00;;;;;;;;;;;;;;;;;;2212485;66;2078;-23
2023/05/31 14:31:30;;;;;;;;;;;;;;;;;;2215083;66;1210;-23
2023/05/31 14:34:04;;;;;;;;;;;;;;;;;;2214010;66;1091;-22
2023/05/31 14:36:34;;;;;;;;;;;;;;;;;;2215353;58;2368;-22
2023/05/31 14:39:08;;;;;;;;;;;;;;;;;;2215549;58;1265;-22
2023/05/31 14:41:39;;;;;;;;;;;;;;;;;;2214361;58;1692;-22
2023/05/31 14:44:09;;;;;;;;;;;;;;;;;;2215295;66;1978;-22
2023/05/31 14:46:42;;;;;;;;;;;;;;;;;;2215289;58;1759;-22
2023/05/31 14:49:15;;;;;;;;;;;;;;;;;;2215114;59;2036;-23
2023/05/31 14:51:46;;;;;;;;;;;;;;;;;;2214980;58;1756;-22
2023/05/31 14:54:17;;;;;;;;;;;;;;;;;;2215276;58;1178;-22
2023/05/31 14:56:47;;;;;;;;;;;;;;;;;;2211791;66;1308;-23
2023/05/31 14:59:18;;;;;;;;;;;;;;;;;;2214513;59;2226;-22
2023/05/31 15:01:48;;;;;;;;;;;;;;;;;;2215587;58;1198;-22
2023/05/31 15:04:18;;;;;;;;;;;;;;;;;;2214257;59;1944;-21
2023/05/31 15:06:48;;;;;;;;;;;;;;;;;;2215573;59;2315;-22
2023/05/31 15:09:22;;;;;;;;;;;;;;;;;;2214262;59;1192;-22
2023/05/31 15:11:52;;;;;;;;;;;;;;;;;;2215182;66;1311;-22
2023/05/31 15:14:22;;;;;;;;;;;;;;;;;;2213987;59;2009;-22
2023/05/31 15:16:52;;;;;;;;;;;;;;;;;;2215002;58;2178;-22
2023/05/31 15:19:23;;;;;;;;;;;;;;;;;;2214899;59;1719;-22
2023/05/31 15:21:53;;;;;;;;;;;;;;;;;;2213085;58;2726;-22
2023/05/31 15:24:23;;;;;;;;;;;;;;;;;;2210400;66;2402;-22
2023/05/31 15:26:56;;;;;;;;;;;;;;;;;;2215512;66;2607;-22
2023/05/31 15:29:29;;;;;;;;;;;;;;;;;;2211954;59;2362;-22
2023/05/31 15:32:03;;;;;;;;;;;;;;;;;;2215622;59;2405;-22
2023/05/31 15:34:33;;;;;;;;;;;;;;;;;;2211267;66;1927;-22
2023/05/31 15:37:03;;;;;;;;;;;;;;;;;;2215007;59;2955;-22
2023/05/31 15:39:34;;;;;;;;;;;;;;;;;;2215538;58;2417;-22
2023/05/31 15:42:05;;;;;;;;;;;;;;;;;;2215464;66;2259;-22
2023/05/31 15:44:35;;;;;;;;;;;;;;;;;;2215055;59;1951;-22
2023/05/31 15:47:06;;;;;;;;;;;;;;;;;;2211501;59;2700;-22
2023/05/31 15:49:36;;;;;;;;;;;;;;;;;;2215393;59;2964;-22
2023/05/31 15:52:06;;;;;;;;;;;;;;;;;;2215481;59;2014;-22
2023/05/31 15:54:36;;;;;;;;;;;;;;;;;;2214489;58;2815;-22
2023/05/31 15:57:07;;;;;;;;;;;;;;;;;;2213395;58;2601;-22
2023/05/31 15:59:38;;;;;;;;;;;;;;;;;;2213883;59;2607;-22
2023/05/31 16:02:08;;;;;;;;;;;;;;;;;;2214908;59;1787;-22
2023/05/31 16:04:39;;;;;;;;;;;;;;;;;;2213716;58;2232;-22
2023/05/31 16:07:10;;;;;;;;;;;;;;;;;;2213428;59;2274;-22
2023/05/31 16:09:40;;;;;;;;;;;;;;;;;;2213923;59;2524;-22
2023/05/31 16:12:10;;;;;;;;;;;;;;;;;;2211174;66;2808;-22
2023/05/31 16:14:43;;;;;;;;;;;;;;;;;;2214779;66;2184;-22
2023/05/31 16:17:13;;;;;;;;;;;;;;;;;;2214246;66;2820;-22
2023/05/31 16:19:44;;;;;;;;;;;;;;;;;;2212147;58;2831;-22
2023/05/31 16:22:14;;;;;;;;;;;;;;;;;;2214380;59;2657;-22
2023/05/31 16:24:48;;;;;;;;;;;;;;;;;;2211840;58;2644;-22
2023/05/31 16:27:18;;;;;;;;;;;;;;;;;;2213900;58;2149;-22
2023/05/31 16:29:52;;;;;;;;;;;;;;;;;;2210404;59;2978;-22
2023/05/31 16:32:22;;;;;;;;;;;;;;;;;;2214450;66;2399;-22
2023/05/31 16:34:52;;;;;;;;;;;;;;;;;;2215368;66;1927;-22
2023/05/31 16:37:23;;;;;;;;;;;;;;;;;;2214786;59;2191;-22
2023/05/31 16:39:53;;;;;;;;;;;;;;;;;;2215051;58;1675;-22
2023/05/31 16:42:24;;;;;;;;;;;;;;;;;;2214680;59;1284;-22
2023/05/31 16:44:56;;;;;;;;;;;;;;;;;;2214915;66;1929;-22
2023/05/31 16:47:26;;;;;;;;;;;;;;;;;;2214485;58;2195;-22
2023/05/31 16:49:56;;;;;;;;;;;;;;;;;;2214776;59;1353;-22
2023/05/31 16:52:26;;;;;;;;;;;;;;;;;;2211705;59;1622;-24
2023/05/31 16:54:57;;;;;;;;;;;;;;;;;;2211869;58;2774;-22
2023/05/31 16:57:27;;;;;;;;;;;;;;;;;;2215084;59;2174;-24
2023/05/31 16:59:57;;;;;;;;;;;;;;;;;;2214720;59;2358;-24
2023/05/31 17:02:28;;;;;;;;;;;;;;;;;;2212190;59;1995;-24
2023/05/31 17:04:58;;;;;;;;;;;;;;;;;;2214356;58;2158;-24
2023/05/31 17:07:28;;;;;;;;;;;;;;;;;;2215318;66;1329;-24
2023/05/31 17:09:58;;;;;;;;;;;;;;;;;;2212069;59;2232;-24
2023/05/31 17:12:28;;;;;;;;;;;;;;;;;;2212136;66;2212;-24
2023/05/31 17:14:59;;;;;;;;;;;;;;;;;;2215388;66;1189;-24
2023/05/31 17:17:31;;;;;;;;;;;;;;;;;;2215294;66;2079;-24
2023/05/31 17:20:02;;;;;;;;;;;;;;;;;;2214735;59;1330;-24
2023/05/31 17:22:32;;;;;;;;;;;;;;;;;;2214526;59;2159;-24
2023/05/31 17:25:03;;;;;;;;;;;;;;;;;;2214411;59;2184;-24
2023/05/31 17:27:33;;;;;;;;;;;;;;;;;;2211661;66;2216;-24
2023/05/31 17:30:04;;;;;;;;;;;;;;;;;;2214961;66;2612;-24
2023/05/31 17:32:35;;;;;;;;;;;;;;;;;;2217499;58;1985;-24
2023/05/31 17:35:06;;;;;;;;;;;;;;;;;;2210005;59;2207;-24